Time;durP1;ratioP1;P1;durP2;ratioP2;P2;SDS_P1;SDS_P2;PMS_P1;PMS_P2;Temp;Humidity;BMP_temperature;BMP_pressure;BME280_temperature;BME280_humidity;BME280_pressure;Samples;Min_cycle;Max_cycle;Signal;HPM_P1;HPM_P2
2023/06/17 00:02:20;;;;;;;35.40;26.30;;;13.20;99.90;;;;;;5100620;27;20391;-25
2023/06/17 00:04:46;;;;;;;37.33;26.65;;;14.80;99.90;;;;;;5100631;27;20092;-24
2023/06/17 00:07:12;;;;;;;47.45;27.27;;;14.80;99.90;;;;;;5135783;27;20463;-25
2023/06/17 00:09:41;;;;;;;40.95;28.55;;;14.80;99.90;;;;;;5117336;27;20385;-25
2023/06/17 00:12:08;;;;;;;41.30;28.98;;;13.50;99.90;;;;;;5117933;27;20453;-24
2023/06/17 00:14:33;;;;;;;37.25;27.38;;;12.90;99.90;;;;;;5135539;27;20090;-24
2023/06/17 00:17:00;;;;;;;35.42;27.73;;;14.00;99.90;;;;;;5116906;27;20078;-24
2023/06/17 00:19:27;;;;;;;39.78;28.85;;;12.70;99.90;;;;;;5116941;27;20054;-24
2023/06/17 00:21:54;;;;;;;38.83;28.10;;;15.00;99.90;;;;;;5136019;27;20043;-25
2023/06/17 00:24:20;;;;;;;39.88;26.75;;;15.30;99.90;;;;;;5100206;27;20134;-24
2023/06/17 00:26:49;;;;;;;37.58;28.00;;;12.70;99.90;;;;;;5117277;27;20043;-24
2023/06/17 00:29:15;;;;;;;37.38;26.95;;;12.70;99.90;;;;;;5135894;27;20043;-24
2023/06/17 00:31:41;;;;;;;40.35;27.08;;;14.50;99.90;;;;;;5135825;27;20086;-24
2023/06/17 00:34:07;;;;;;;36.58;27.27;;;13.20;99.90;;;;;;5135191;27;20085;-24
2023/06/17 00:36:32;;;;;;;38.97;28.20;;;14.50;99.90;;;;;;5116686;27;20135;-24
2023/06/17 00:38:58;;;;;;;35.95;26.58;;;14.90;99.90;;;;;;5135165;27;20133;-24
2023/06/17 00:41:24;;;;;;;36.75;27.52;;;15.20;99.90;;;;;;5116621;27;20043;-24
2023/06/17 00:43:49;;;;;;;34.58;27.33;;;13.10;99.90;;;;;;5134604;27;20055;-24
2023/06/17 00:46:35;;;;;;;42.10;27.45;;;15.70;99.90;;;;;;5134955;27;20089;-24
2023/06/17 00:49:03;;;;;;;35.90;27.50;;;13.40;99.90;;;;;;5116601;27;20043;-24
2023/06/17 00:51:31;;;;;;;38.00;30.27;;;13.30;99.90;;;;;;5135512;27;20039;-24
2023/06/17 00:53:58;;;;;;;46.00;32.08;;;14.30;99.90;;;;;;5134047;27;20058;-25
2023/06/17 00:56:26;;;;;;;48.05;31.17;;;13.40;99.90;;;;;;5099593;27;20043;-24
2023/06/17 00:58:53;;;;;;;40.85;29.02;;;15.70;99.90;;;;;;5134894;27;20073;-24
2023/06/17 01:01:19;;;;;;;41.72;30.13;;;15.70;99.90;;;;;;5135594;27;20045;-25
2023/06/17 01:03:46;;;;;;;42.20;28.92;;;14.90;99.90;;;;;;5135383;27;20050;-25
2023/06/17 01:06:25;;;;;;;40.88;29.45;;;14.80;99.90;;;;;;5116499;27;20047;-24
2023/06/17 01:09:01;;;;;;;46.42;30.95;;;15.60;99.90;;;;;;5134781;27;20043;-24
2023/06/17 01:11:29;;;;;;;44.78;33.03;;;14.70;99.90;;;;;;5134751;27;20515;-24
2023/06/17 01:13:56;;;;;;;44.85;31.80;;;13.50;99.90;;;;;;5116836;28;20055;-24
2023/06/17 01:16:27;;;;;;;43.17;30.98;;;15.40;99.90;;;;;;5134655;28;20043;-24
2023/06/17 01:18:53;;;;;;;45.80;28.63;;;15.60;99.90;;;;;;5117134;28;20104;-25
2023/06/17 01:21:23;;;;;;;37.33;28.25;;;14.60;99.90;;;;;;5099175;28;20563;-24
2023/06/17 01:23:53;;;;;;;39.83;30.13;;;13.70;99.90;;;;;;5134891;28;20050;-24
2023/06/17 01:26:21;;;;;;;32.90;27.38;;;13.80;99.90;;;;;;5135124;28;20438;-24
2023/06/17 01:28:48;;;;;;;37.97;26.40;;;13.90;99.90;;;;;;5134603;28;20183;-25
2023/06/17 01:31:18;;;;;;;34.20;26.83;;;15.20;99.90;;;;;;5116433;28;20224;-24
2023/06/17 01:33:50;;;;;;;39.03;26.35;;;15.40;99.90;;;;;;5116216;28;20051;-24
2023/06/17 01:36:24;;;;;;;33.00;26.33;;;14.00;99.90;;;;;;5134547;28;20047;-24
2023/06/17 01:38:55;;;;;;;36.03;28.70;;;14.70;99.90;;;;;;5134445;28;20329;-24
2023/06/17 01:41:29;;;;;;;32.22;24.98;;;15.60;99.90;;;;;;5116603;28;20047;-24
2023/06/17 01:43:57;;;;;;;37.05;25.13;;;14.10;99.90;;;;;;5135046;28;20127;-24
2023/06/17 01:46:24;;;;;;;36.55;26.52;;;15.50;99.90;;;;;;5134395;28;20051;-25
2023/06/17 01:48:53;;;;;;;30.10;24.42;;;14.10;99.90;;;;;;5134299;28;20507;-24
2023/06/17 01:51:19;;;;;;;33.50;24.90;;;14.00;99.90;;;;;;5116054;28;20092;-24
2023/06/17 01:53:45;;;;;;;38.53;25.60;;;14.20;99.90;;;;;;5134252;28;20039;-24
2023/06/17 01:56:11;;;;;;;32.88;26.27;;;14.10;99.90;;;;;;5116273;28;20051;-24
2023/06/17 01:58:38;;;;;;;37.03;28.73;;;14.00;99.90;;;;;;5134215;28;20053;-24
2023/06/17 02:01:04;;;;;;;42.15;29.75;;;14.00;99.90;;;;;;5116577;28;20448;-24
2023/06/17 02:03:30;;;;;;;35.30;26.30;;;15.30;99.90;;;;;;5134206;28;20079;-24
2023/06/17 02:05:56;;;;;;;36.42;25.95;;;15.20;99.90;;;;;;5136476;27;20035;-25
2023/06/17 02:08:22;;;;;;;33.97;26.77;;;14.40;99.90;;;;;;5138033;27;20503;-24
2023/06/17 02:10:48;;;;;;;37.28;26.60;;;15.20;99.90;;;;;;5119723;27;20035;-24
2023/06/17 02:13:14;;;;;;;36.00;24.52;;;13.90;99.90;;;;;;5119874;27;20049;-24
2023/06/17 02:15:42;;;;;;;36.70;25.42;;;13.80;99.90;;;;;;5119547;27;20047;-24
2023/06/17 02:18:09;;;;;;;35.30;25.48;;;14.30;99.90;;;;;;5119727;27;20043;-24
2023/06/17 02:20:34;;;;;;;39.00;28.08;;;14.30;99.90;;;;;;5119397;27;20043;-24
2023/06/17 02:23:00;;;;;;;39.88;25.20;;;14.80;99.90;;;;;;5137788;27;20104;-25
2023/06/17 02:25:26;;;;;;;31.90;25.95;;;13.70;99.90;;;;;;5137603;27;20507;-24
2023/06/17 02:27:52;;;;;;;37.75;26.17;;;15.10;99.90;;;;;;5119265;27;20420;-24
2023/06/17 02:30:17;;;;;;;34.50;26.67;;;13.70;99.90;;;;;;5102595;27;20051;-24
2023/06/17 02:32:43;;;;;;;38.20;27.27;;;14.10;99.90;;;;;;5119172;27;20043;-25
2023/06/17 02:35:10;;;;;;;41.40;26.35;;;15.00;99.90;;;;;;5102655;27;20074;-24
2023/06/17 02:37:37;;;;;;;34.15;26.48;;;13.70;99.90;;;;;;5102585;27;20153;-24
2023/06/17 02:40:08;;;;;;;34.22;25.73;;;15.20;99.90;;;;;;5137348;27;20144;-24
2023/06/17 02:42:35;;;;;;;37.63;26.25;;;14.80;99.90;;;;;;5118934;27;20055;-24
2023/06/17 02:45:02;;;;;;;38.42;25.05;;;15.20;99.90;;;;;;5137668;27;20047;-24
2023/06/17 02:47:28;;;;;;;36.92;26.33;;;13.60;99.90;;;;;;5137292;27;20393;-25
2023/06/17 02:49:54;;;;;;;42.00;29.42;;;13.90;99.90;;;;;;5118890;27;20031;-24
2023/06/17 02:52:21;;;;;;;43.28;29.35;;;15.20;99.90;;;;;;5101820;27;20099;-24
2023/06/17 02:54:46;;;;;;;45.28;28.20;;;15.10;99.90;;;;;;5101497;27;20099;-24
2023/06/17 02:57:12;;;;;;;41.72;27.45;;;14.70;99.90;;;;;;5137113;27;20047;-24
2023/06/17 02:59:38;;;;;;;33.03;27.13;;;14.20;99.90;;;;;;5118775;27;20084;-25
2023/06/17 03:02:04;;;;;;;43.08;29.25;;;15.10;99.90;;;;;;5119780;27;20043;-24
2023/06/17 03:04:35;;;;;;;37.00;27.23;;;15.10;99.90;;;;;;5137023;27;20449;-24
2023/06/17 03:07:05;;;;;;;43.67;28.70;;;14.10;99.90;;;;;;5136988;27;20047;-24
2023/06/17 03:09:30;;;;;;;36.47;26.23;;;13.80;99.90;;;;;;5136875;27;20088;-24
2023/06/17 03:11:58;;;;;;;34.70;25.92;;;14.00;99.90;;;;;;5118474;27;20043;-24
2023/06/17 03:14:24;;;;;;;34.10;26.83;;;15.10;99.90;;;;;;5119266;27;20384;-24
2023/06/17 03:16:50;;;;;;;34.78;25.02;;;14.80;99.90;;;;;;5136632;27;20047;-24
2023/06/17 03:19:16;;;;;;;37.72;26.05;;;13.80;99.90;;;;;;5136587;27;20073;-24
2023/06/17 03:21:42;;;;;;;37.55;25.90;;;14.80;99.90;;;;;;5136621;27;20095;-24
2023/06/17 03:24:08;;;;;;;31.52;24.73;;;13.70;99.90;;;;;;5136503;27;20043;-24
2023/06/17 03:26:34;;;;;;;34.35;26.40;;;13.80;99.90;;;;;;5136485;27;20043;-24
2023/06/17 03:29:04;;;;;;;43.30;26.77;;;15.00;99.90;;;;;;5119022;27;20142;-25
2023/06/17 03:31:29;;;;;;;37.53;25.23;;;14.00;99.90;;;;;;5118279;27;20055;-24
2023/06/17 03:33:55;;;;;;;31.35;23.23;;;14.30;99.90;;;;;;5118214;27;20039;-24
2023/06/17 03:36:25;;;;;;;38.30;24.83;;;15.10;99.90;;;;;;5135956;27;20499;-24
2023/06/17 03:38:51;;;;;;;30.77;22.90;;;14.40;99.90;;;;;;5118358;27;20127;-24
2023/06/17 03:41:17;;;;;;;27.35;20.02;;;15.10;99.90;;;;;;5136134;27;20073;-24
2023/06/17 03:43:43;;;;;;;29.20;20.20;;;15.10;99.90;;;;;;5136206;27;20047;-25
2023/06/17 03:46:09;;;;;;;31.17;20.27;;;13.80;99.90;;;;;;5136343;27;20500;-24
2023/06/17 03:48:34;;;;;;;29.45;20.00;;;15.00;99.90;;;;;;5136546;27;20384;-25
2023/06/17 03:51:02;;;;;;;29.95;22.05;;;14.50;99.90;;;;;;5135935;27;20035;-24
2023/06/17 03:53:28;;;;;;;29.77;22.17;;;14.90;99.90;;;;;;5135888;27;20126;-25
2023/06/17 03:55:54;;;;;;;30.00;21.25;;;14.80;99.90;;;;;;5117581;27;20095;-25
2023/06/17 03:58:20;;;;;;;33.33;23.30;;;13.80;99.90;;;;;;5136097;27;20125;-25
2023/06/17 04:00:47;;;;;;;31.80;23.75;;;14.80;99.90;;;;;;5117433;27;20039;-25
2023/06/17 04:03:14;;;;;;;35.17;23.77;;;13.90;99.90;;;;;;5117629;27;20089;-25
2023/06/17 04:05:41;;;;;;;33.90;23.17;;;14.30;99.90;;;;;;5117415;27;20050;-25
2023/06/17 04:08:07;;;;;;;29.65;22.00;;;13.90;99.90;;;;;;5135933;27;20047;-25
2023/06/17 04:10:33;;;;;;;29.77;21.88;;;14.00;99.90;;;;;;5135638;27;20491;-24
2023/06/17 04:12:59;;;;;;;36.42;24.48;;;14.20;99.90;;;;;;5117143;27;20043;-25
2023/06/17 04:15:24;;;;;;;38.30;26.27;;;13.90;99.90;;;;;;5135503;27;20135;-24
2023/06/17 04:17:50;;;;;;;37.90;25.10;;;14.70;99.90;;;;;;5117153;27;20035;-24
2023/06/17 04:20:16;;;;;;;39.42;26.00;;;14.90;99.90;;;;;;5116986;27;20031;-24
2023/06/17 04:22:43;;;;;;;31.98;21.58;;;15.10;99.90;;;;;;5135679;27;20402;-24
2023/06/17 04:25:10;;;;;;;30.98;23.40;;;15.00;99.90;;;;;;5117345;27;20061;-25
2023/06/17 04:27:38;;;;;;;38.35;25.60;;;14.20;99.90;;;;;;5135175;27;20130;-24
2023/06/17 04:30:06;;;;;;;33.95;21.42;;;14.70;99.90;;;;;;5135166;27;20035;-25
2023/06/17 04:32:35;;;;;;;34.63;25.65;;;14.00;99.90;;;;;;5135141;27;20089;-24
2023/06/17 04:35:03;;;;;;;33.85;24.88;;;15.00;99.90;;;;;;5116759;27;20087;-25
2023/06/17 04:37:30;;;;;;;35.10;22.40;;;15.00;99.90;;;;;;5135097;27;20511;-24
2023/06/17 04:39:56;;;;;;;37.35;26.60;;;14.10;99.90;;;;;;5136133;27;20095;-25
2023/06/17 04:42:22;;;;;;;39.67;29.77;;;14.00;99.90;;;;;;5135465;27;20059;-24
2023/06/17 04:48:29;;;;;;;42.67;27.70;;;14.40;99.90;;;;;;5134665;27;20046;-24
2023/06/17 04:50:58;;;;;;;38.20;26.65;;;14.90;99.90;;;;;;5116725;27;20458;-24
2023/06/17 04:53:25;;;;;;;35.03;24.13;;;14.10;99.90;;;;;;5117640;27;20039;-24
2023/06/17 04:55:50;;;;;;;40.80;25.25;;;14.30;99.90;;;;;;5135089;27;20396;-25
2023/06/17 04:58:17;;;;;;;41.63;24.73;;;14.20;99.90;;;;;;5135319;27;20047;-24
2023/06/17 05:00:42;;;;;;;33.30;23.65;;;15.00;99.90;;;;;;5134706;27;20035;-24
2023/06/17 05:03:09;;;;;;;32.10;21.23;;;14.20;99.90;;;;;;5134771;27;20070;-25
2023/06/17 05:05:35;;;;;;;36.25;25.90;;;14.20;99.90;;;;;;5134648;27;20043;-25
2023/06/17 05:08:00;;;;;;;28.02;20.85;;;14.40;99.90;;;;;;5135251;27;20051;-25
2023/06/17 05:10:26;;;;;;;29.58;21.48;;;14.40;99.90;;;;;;5116857;28;20054;-25
2023/06/17 05:12:52;;;;;;;26.90;18.33;;;14.50;99.90;;;;;;5134710;27;20073;-25
2023/06/17 05:15:18;;;;;;;28.45;20.63;;;14.50;99.90;;;;;;5099935;28;20047;-25
2023/06/17 05:17:43;;;;;;;26.80;18.08;;;14.70;99.90;;;;;;5116285;28;20147;-24
2023/06/17 05:20:09;;;;;;;26.98;18.35;;;14.60;99.90;;;;;;5134467;28;20043;-24
2023/06/17 05:22:35;;;;;;;23.27;18.92;;;14.50;99.90;;;;;;5116420;28;20054;-25
2023/06/17 05:25:01;;;;;;;30.40;21.20;;;14.40;99.90;;;;;;5134390;27;20043;-24
2023/06/17 05:27:26;;;;;;;27.58;21.00;;;14.50;99.90;;;;;;5116757;28;20080;-25
2023/06/17 05:29:52;;;;;;;32.78;22.40;;;15.10;99.90;;;;;;5134397;28;20054;-24
2023/06/17 05:32:18;;;;;;;25.92;19.00;;;14.60;99.90;;;;;;5117184;28;20051;-25
2023/06/17 05:34:44;;;;;;;36.60;25.85;;;14.50;99.90;;;;;;5116092;28;20043;-24
2023/06/17 05:37:10;;;;;;;30.85;23.98;;;15.00;99.90;;;;;;5116284;28;20047;-25
2023/06/17 05:39:35;;;;;;;27.08;21.98;;;14.70;99.90;;;;;;5117105;27;20043;-25
2023/06/17 05:42:01;;;;;;;38.42;22.60;;;15.10;99.90;;;;;;5138324;27;20047;-25
2023/06/17 05:44:27;;;;;;;28.98;22.52;;;14.70;99.90;;;;;;5120204;27;20054;-25
2023/06/17 05:46:52;;;;;;;31.83;22.77;;;14.80;99.90;;;;;;5121226;27;20047;-25
2023/06/17 05:49:18;;;;;;;31.33;23.85;;;14.90;99.90;;;;;;5138373;27;20043;-25
2023/06/17 05:51:44;;;;;;;32.88;21.38;;;15.10;99.90;;;;;;5138292;27;20050;-25
2023/06/17 05:54:09;;;;;;;29.25;22.13;;;15.20;99.90;;;;;;5103184;27;20054;-25
2023/06/17 05:56:35;;;;;;;28.30;20.75;;;15.20;99.90;;;;;;5120924;27;20051;-25
2023/06/17 05:59:01;;;;;;;30.60;22.55;;;15.00;99.90;;;;;;5103135;27;20078;-25
2023/06/17 06:01:27;;;;;;;27.67;20.38;;;15.30;99.90;;;;;;5120273;27;20055;-25
2023/06/17 06:03:52;;;;;;;29.50;20.20;;;15.30;99.90;;;;;;5138606;27;20129;-25
2023/06/17 06:06:18;;;;;;;27.17;19.13;;;15.10;99.90;;;;;;5138580;27;20429;-25
2023/06/17 06:08:44;;;;;;;29.20;20.77;;;15.00;99.90;;;;;;5137948;27;20047;-25
2023/06/17 06:11:10;;;;;;;31.85;21.50;;;15.00;99.90;;;;;;5120582;27;20141;-25
2023/06/17 06:13:35;;;;;;;30.63;19.05;;;15.20;99.90;;;;;;5102931;27;20054;-25
2023/06/17 06:16:01;;;;;;;34.60;22.23;;;15.10;99.90;;;;;;5138117;27;20042;-25
2023/06/17 06:18:28;;;;;;;39.22;24.05;;;15.10;99.90;;;;;;5119471;27;20049;-25
2023/06/17 06:20:53;;;;;;;30.98;18.38;;;15.40;99.90;;;;;;5119085;27;20050;-25
2023/06/17 06:23:19;;;;;;;29.52;22.60;;;15.40;99.90;;;;;;5137773;27;20055;-25
2023/06/17 06:25:45;;;;;;;33.47;23.70;;;15.40;99.90;;;;;;5137739;27;20042;-25
2023/06/17 06:28:11;;;;;;;21.75;18.23;;;15.40;99.90;;;;;;5103326;27;20050;-25
2023/06/17 06:30:36;;;;;;;22.17;18.58;;;15.60;99.90;;;;;;5137599;27;20091;-25
2023/06/17 06:33:02;;;;;;;29.10;21.95;;;15.50;99.90;;;;;;5137714;27;20086;-25
2023/06/17 06:35:28;;;;;;;27.85;19.25;;;15.70;99.90;;;;;;5119287;27;20082;-25
2023/06/17 06:37:53;;;;;;;28.08;18.92;;;15.70;99.90;;;;;;5137452;27;20132;-25
2023/06/17 06:40:19;;;;;;;29.27;20.60;;;15.60;99.90;;;;;;5137258;27;20054;-25
2023/06/17 06:42:45;;;;;;;24.00;19.88;;;15.60;99.90;;;;;;5115672;28;20052;-25
2023/06/17 06:45:11;;;;;;;28.10;19.27;;;15.70;99.90;;;;;;5116748;28;20044;-25
2023/06/17 06:47:37;;;;;;;24.25;15.40;;;15.80;99.90;;;;;;5116734;28;20044;-25
2023/06/17 06:50:03;;;;;;;22.13;13.77;;;15.70;99.90;;;;;;5115166;28;20043;-25
2023/06/17 06:52:28;;;;;;;20.75;14.75;;;15.80;99.90;;;;;;5114117;28;20130;-25
2023/06/17 06:54:54;;;;;;;20.35;15.23;;;15.90;99.90;;;;;;5116539;28;20047;-25
2023/06/17 06:57:21;;;;;;;20.23;14.30;;;16.10;99.90;;;;;;5098631;28;20135;-25
2023/06/17 06:59:46;;;;;;;24.55;14.70;;;16.20;99.90;;;;;;5115396;28;20058;-25
2023/06/17 07:02:12;;;;;;;19.90;14.52;;;16.20;99.90;;;;;;5099343;28;20043;-25
2023/06/17 07:04:38;;;;;;;19.42;14.30;;;16.30;99.90;;;;;;5116970;28;20117;-25
2023/06/17 07:07:04;;;;;;;22.15;14.20;;;16.40;99.90;;;;;;5115127;28;20135;-25
2023/06/17 07:09:30;;;;;;;19.98;13.95;;;16.60;99.90;;;;;;5116831;28;20114;-25
2023/06/17 07:11:55;;;;;;;19.52;12.68;;;16.70;99.90;;;;;;5115949;28;20050;-25
2023/06/17 07:14:21;;;;;;;21.35;13.32;;;16.80;99.90;;;;;;5116160;28;20126;-26
2023/06/17 07:16:47;;;;;;;19.75;13.05;;;16.80;99.90;;;;;;5114894;28;20048;-25
2023/06/17 07:19:12;;;;;;;20.52;12.73;;;17.00;99.90;;;;;;5114892;28;20138;-25
2023/06/17 07:21:38;;;;;;;23.02;12.05;;;17.00;99.90;;;;;;5115958;28;20069;-25
2023/06/17 07:24:04;;;;;;;22.58;12.38;;;17.00;99.90;;;;;;5116196;28;20043;-25
2023/06/17 07:26:30;;;;;;;20.30;13.82;;;17.10;99.90;;;;;;5116478;28;20135;-25
2023/06/17 07:28:56;;;;;;;17.42;12.43;;;17.30;99.90;;;;;;5115918;28;20055;-25
2023/06/17 07:31:22;;;;;;;17.55;12.23;;;17.40;99.90;;;;;;5115804;28;20040;-25
2023/06/17 07:33:48;;;;;;;18.17;11.50;;;17.90;99.90;;;;;;5114600;28;20043;-25
2023/06/17 07:36:14;;;;;;;23.02;12.95;;;18.40;99.90;;;;;;5115814;28;20393;-26
2023/06/17 07:38:39;;;;;;;16.42;11.70;;;18.20;99.90;;;;;;5115780;28;20047;-25
2023/06/17 07:41:05;;;;;;;15.80;11.63;;;18.10;99.90;;;;;;5115524;28;20046;-25
2023/06/17 07:43:31;;;;;;;17.95;12.35;;;18.00;99.90;;;;;;5114227;28;20051;-25
2023/06/17 07:45:57;;;;;;;17.88;11.10;;;17.90;99.90;;;;;;5114333;28;20130;-25
2023/06/17 07:48:22;;;;;;;24.95;12.25;;;18.00;99.90;;;;;;5097513;28;20046;-25
2023/06/17 07:50:48;;;;;;;19.02;12.05;;;18.20;99.90;;;;;;5115502;28;20035;-25
2023/06/17 07:53:15;;;;;;;19.50;11.75;;;18.70;99.90;;;;;;5115293;28;20088;-25
2023/06/17 07:55:40;;;;;;;11.65;9.55;;;18.70;26.30;;;;;;5115383;28;20057;-26
2023/06/17 07:58:06;;;;;;;20.02;12.35;;;18.50;1.00;;;;;;5115388;28;20122;-26
2023/06/17 08:00:32;;;;;;;15.60;11.80;;;18.30;1.00;;;;;;5115177;28;20396;-25
2023/06/17 08:02:58;;;;;;;15.07;11.52;;;18.40;99.90;;;;;;5115359;28;20433;-25
2023/06/17 08:05:23;;;;;;;14.98;11.30;;;18.90;99.90;;;;;;5114204;28;20039;-25
2023/06/17 08:07:49;;;;;;;17.45;12.25;;;20.40;1.00;;;;;;5114820;28;20093;-25
2023/06/17 08:10:15;;;;;;;15.45;10.77;;;21.10;99.90;;;;;;5115950;28;20079;-25
2023/06/17 08:12:40;;;;;;;17.02;11.25;;;20.90;1.00;;;;;;5115514;28;20104;-26
2023/06/17 08:15:07;;;;;;;15.43;9.98;;;20.90;1.00;;;;;;5115009;28;20050;-25
2023/06/17 08:17:33;;;;;;;14.23;9.95;;;21.60;1.00;;;;;;5114970;28;20051;-27
2023/06/17 08:19:59;;;;;;;17.67;9.95;;;22.80;1.00;;;;;;5113609;28;20154;-27
2023/06/17 08:22:25;;;;;;;15.98;10.38;;;23.40;1.00;;;;;;5114339;28;20054;-27
2023/06/17 08:24:51;;;;;;;14.18;9.32;;;22.90;99.90;;;;;;5114739;28;20044;-27
2023/06/17 08:27:17;;;;;;;14.30;9.38;;;22.80;99.90;;;;;;5115266;28;20050;-27
2023/06/17 08:29:43;;;;;;;14.05;10.68;;;22.90;99.90;;;;;;5113555;28;20114;-27
2023/06/17 08:32:08;;;;;;;14.48;9.50;;;22.70;99.90;;;;;;5114795;28;20035;-27
2023/06/17 08:34:35;;;;;;;17.13;10.10;;;23.40;8.10;;;;;;5080332;28;20050;-28
2023/06/17 08:37:04;;;;;;;17.58;9.80;;;23.70;1.00;;;;;;5115539;28;20350;-27
2023/06/17 08:39:31;;;;;;;23.05;10.45;;;23.40;1.00;;;;;;5114450;28;20056;-27
2023/06/17 08:41:58;;;;;;;17.25;10.23;;;23.40;1.00;;;;;;5114654;28;20039;-27
2023/06/17 08:44:26;;;;;;;13.68;8.85;;;22.90;1.00;;;;;;5134176;27;20055;-27
2023/06/17 08:46:53;;;;;;;14.38;9.40;;;22.90;1.00;;;;;;5134631;27;20489;-27
2023/06/17 08:49:20;;;;;;;13.35;8.70;;;23.40;1.00;;;;;;5134981;27;20096;-29
2023/06/17 08:51:48;;;;;;;14.40;8.57;;;23.00;75.00;;;;;;5134897;27;20047;-27
2023/06/17 08:54:15;;;;;;;12.30;7.75;;;23.20;99.90;;;;;;5117366;27;20047;-27
2023/06/17 08:56:42;;;;;;;16.00;8.40;;;23.80;57.80;;;;;;5134829;27;20153;-27
2023/06/17 08:59:07;;;;;;;10.88;8.15;;;23.50;1.00;;;;;;5116421;27;20400;-28
2023/06/17 09:01:34;;;;;;;14.77;8.90;;;23.90;1.00;;;;;;5116276;27;20043;-28
2023/06/17 09:04:01;;;;;;;11.65;7.60;;;24.50;99.90;;;;;;5134722;27;20099;-28
2023/06/17 09:06:28;;;;;;;14.68;8.75;;;23.90;99.90;;;;;;5134698;27;20503;-29
2023/06/17 09:08:57;;;;;;;11.23;8.10;;;24.20;99.90;;;;;;5134470;27;20129;-27
2023/06/17 09:11:27;;;;;;;9.75;6.90;;;24.40;99.90;;;;;;5134522;27;20576;-28
2023/06/17 09:13:57;;;;;;;14.60;8.23;;;24.90;1.00;;;;;;5134432;27;20043;-28
2023/06/17 09:16:31;;;;;;;12.07;7.53;;;24.90;99.90;;;;;;5134044;27;20043;-28
2023/06/17 09:18:58;;;;;;;11.73;7.20;;;25.00;99.90;;;;;;5135245;28;20041;-28
2023/06/17 09:21:25;;;;;;;11.85;7.82;;;24.70;99.90;;;;;;5134308;28;20100;-27
2023/06/17 09:23:56;;;;;;;10.63;7.40;;;24.40;99.90;;;;;;5134359;28;20047;-28
2023/06/17 09:26:42;;;;;;;9.55;7.70;;;25.20;99.90;;;;;;5115887;28;20054;-28
2023/06/17 09:29:10;;;;;;;14.27;7.88;;;24.90;1.00;;;;;;5134898;28;20049;-28
2023/06/17 09:31:53;;;;;;;11.07;8.18;;;24.70;7.90;;;;;;5134324;28;20039;-28
2023/06/17 09:34:19;;;;;;;;;;;25.10;1.00;;;;;;5134708;28;20043;-29
2023/06/17 09:36:46;;;;;;;12.27;8.05;;;24.80;1.00;;;;;;5116057;28;20009;-29
2023/06/17 09:39:12;;;;;;;15.85;8.43;;;25.70;12.20;;;;;;5134320;28;20156;-28
2023/06/17 09:41:43;;;;;;;11.45;8.35;;;25.50;1.00;;;;;;5115902;28;20043;-28
2023/06/17 09:44:10;;;;;;;15.50;8.32;;;24.90;1.00;;;;;;5134872;28;20043;-28
2023/06/17 09:46:39;;;;;;;13.90;8.57;;;25.70;1.00;;;;;;5134333;28;20053;-28
2023/06/17 09:49:09;;;;;;;12.65;7.85;;;25.70;1.00;;;;;;5134212;28;20047;-28
2023/06/17 09:51:37;;;;;;;11.80;7.97;;;25.70;99.90;;;;;;5134247;28;20078;-28
2023/06/17 09:54:07;;;;;;;11.18;7.28;;;25.90;99.90;;;;;;5133863;28;20043;-28
2023/06/17 09:56:34;;;;;;;10.48;7.43;;;25.60;99.90;;;;;;5134195;28;20039;-28
2023/06/17 09:59:00;;;;;;;13.93;8.32;;;26.00;99.90;;;;;;5134718;28;20057;-28
2023/06/17 10:01:30;;;;;;;13.48;7.18;;;25.70;99.90;;;;;;5134067;28;20048;-28
2023/06/17 10:04:02;;;;;;;12.18;7.53;;;25.90;99.90;;;;;;5134645;28;20121;-29
2023/06/17 10:06:34;;;;;;;11.77;8.45;;;26.40;78.50;;;;;;5134112;28;20044;-28
2023/06/17 10:09:07;;;;;;;12.00;7.50;;;27.20;1.00;;;;;;5116483;28;20043;-28
2023/06/17 10:11:34;;;;;;;12.40;7.93;;;27.20;1.00;;;;;;5099297;28;20630;-28
2023/06/17 10:14:06;;;;;;;15.85;7.60;;;27.80;1.00;;;;;;5134054;28;20059;-29
2023/06/17 10:16:36;;;;;;;10.57;7.60;;;27.40;1.00;;;;;;5115816;28;20106;-29
2023/06/17 10:19:07;;;;;;;11.38;6.53;;;26.50;1.00;;;;;;5099835;28;20058;-29
2023/06/17 10:21:44;;;;;;;16.20;7.57;;;26.70;1.00;;;;;;5115906;28;20044;-30
2023/06/17 10:24:11;;;;;;;10.57;7.38;;;27.10;1.00;;;;;;5134387;27;20051;-29
2023/06/17 10:26:36;;;;;;;10.00;7.75;;;27.00;1.00;;;;;;5117366;27;20434;-29
2023/06/17 10:29:08;;;;;;;11.20;7.53;;;26.80;1.00;;;;;;5137691;27;20095;-29
2023/06/17 10:31:39;;;;;;;10.68;7.13;;;27.10;1.00;;;;;;5138176;27;20040;-29
2023/06/17 10:34:05;;;;;;;9.75;7.32;;;27.60;99.90;;;;;;5120292;27;20051;-29
2023/06/17 10:36:35;;;;;;;9.70;7.10;;;28.10;99.90;;;;;;5138158;27;20047;-29
2023/06/17 10:39:10;;;;;;;15.77;8.18;;;28.00;99.90;;;;;;5137811;27;20053;-30
2023/06/17 10:41:41;;;;;;;15.05;8.75;;;27.30;99.90;;;;;;5102110;27;20477;-29
2023/06/17 10:44:27;;;;;;;11.03;8.10;;;27.40;99.90;;;;;;5136977;27;20047;-29
2023/06/17 10:46:53;;;;;;;12.55;8.57;;;27.30;99.90;;;;;;5137156;27;20051;-30
2023/06/17 10:49:20;;;;;;;12.20;7.85;;;26.60;99.90;;;;;;5137129;27;20043;-30
2023/06/17 10:51:56;;;;;;;12.07;7.47;;;26.50;99.90;;;;;;5136742;27;20051;-29
2023/06/17 10:54:30;;;;;;;9.77;7.90;;;26.00;1.00;;;;;;5118692;27;20043;-29
2023/06/17 10:56:57;;;;;;;15.32;7.82;;;26.40;1.00;;;;;;5137745;27;20046;-29
2023/06/17 10:59:26;;;;;;;11.10;8.10;;;26.60;1.00;;;;;;5136903;27;20047;-29
2023/06/17 11:02:02;;;;;;;12.05;7.75;;;26.60;1.00;;;;;;5136831;27;20039;-29
2023/06/17 11:04:31;;;;;;;12.35;7.90;;;27.50;99.90;;;;;;5118607;27;20043;-29
2023/06/17 11:07:04;;;;;;;11.40;7.07;;;28.10;99.90;;;;;;5136777;27;20043;-29
2023/06/17 11:09:32;;;;;;;10.82;6.80;;;27.70;99.90;;;;;;5118557;27;20115;-29
2023/06/17 11:12:00;;;;;;;10.73;7.60;;;27.50;99.90;;;;;;5101825;27;20102;-30
2023/06/17 11:14:30;;;;;;;17.23;8.70;;;27.10;99.90;;;;;;5136811;27;20051;-30
2023/06/17 11:16:56;;;;;;;13.57;7.40;;;27.00;99.90;;;;;;5136753;27;20563;-29
2023/06/17 11:19:23;;;;;;;10.13;6.53;;;27.10;99.90;;;;;;5136695;27;20053;-30
2023/06/17 11:22:03;;;;;;;11.52;7.15;;;27.50;99.90;;;;;;5117995;27;20498;-29
2023/06/17 11:24:32;;;;;;;11.63;6.88;;;27.50;99.90;;;;;;5101438;27;20130;-30
2023/06/17 11:26:58;;;;;;;11.70;6.82;;;26.90;99.90;;;;;;5118698;27;20047;-29
2023/06/17 11:29:28;;;;;;;9.70;6.15;;;27.60;99.90;;;;;;5137235;27;20052;-30
2023/06/17 11:31:58;;;;;;;11.80;6.50;;;27.70;99.90;;;;;;5118182;27;20134;-30
2023/06/17 11:34:26;;;;;;;9.65;6.53;;;27.90;99.90;;;;;;5136943;27;20051;-29
2023/06/17 11:36:53;;;;;;;11.35;5.70;;;27.80;99.90;;;;;;5136275;27;20370;-30
2023/06/17 11:39:23;;;;;;;12.40;6.18;;;28.10;99.90;;;;;;5136004;27;20039;-29
2023/06/17 11:41:52;;;;;;;12.07;7.20;;;28.50;99.90;;;;;;5136115;27;20043;-29
2023/06/17 11:44:21;;;;;;;13.63;7.18;;;28.40;99.90;;;;;;5136050;27;20067;-30
2023/06/17 11:46:53;;;;;;;9.35;6.45;;;27.40;99.90;;;;;;5117758;27;20054;-30
2023/06/17 11:49:24;;;;;;;10.73;6.25;;;27.60;99.90;;;;;;5136043;27;20050;-30
2023/06/17 11:51:50;;;;;;;12.80;6.37;;;28.30;99.90;;;;;;5136704;27;20381;-29
2023/06/17 11:54:19;;;;;;;15.00;6.80;;;28.60;99.90;;;;;;5136205;27;20050;-30
2023/06/17 11:56:47;;;;;;;9.18;6.20;;;28.40;99.90;;;;;;5135945;27;20490;-30
2023/06/17 11:59:13;;;;;;;10.73;7.13;;;28.50;99.90;;;;;;5135869;27;20043;-29
2023/06/17 12:01:39;;;;;;;11.68;6.25;;;28.50;99.90;;;;;;5118054;27;20381;-30
2023/06/17 12:04:04;;;;;;;11.38;6.72;;;28.00;99.90;;;;;;5135870;27;20046;-29
2023/06/17 12:06:32;;;;;;;10.13;6.32;;;27.80;99.90;;;;;;5117564;27;20099;-30
2023/06/17 12:09:03;;;;;;;11.50;6.07;;;28.10;99.90;;;;;;5135724;27;20500;-30
2023/06/17 12:11:31;;;;;;;9.75;6.05;;;28.30;99.90;;;;;;5117374;27;20046;-31
2023/06/17 12:13:58;;;;;;;13.13;6.57;;;28.30;99.90;;;;;;5135595;27;20472;-30
2023/06/17 12:16:23;;;;;;;11.60;6.45;;;28.00;99.90;;;;;;5135694;27;20126;-30
2023/06/17 12:18:51;;;;;;;11.02;5.95;;;27.80;99.90;;;;;;5135440;27;20089;-30
2023/06/17 12:21:21;;;;;;;10.60;6.28;;;27.60;99.90;;;;;;5135341;27;20130;-30
2023/06/17 12:23:49;;;;;;;14.93;6.93;;;27.50;99.90;;;;;;5117708;27;20376;-30
2023/06/17 12:26:15;;;;;;;10.35;6.40;;;27.00;99.90;;;;;;5135180;27;20450;-29
2023/06/17 12:28:41;;;;;;;10.73;6.40;;;27.60;99.90;;;;;;5135395;27;20469;-29
2023/06/17 12:31:08;;;;;;;11.48;6.15;;;27.40;99.90;;;;;;5135217;27;20050;-30
2023/06/17 12:33:34;;;;;;;12.02;6.50;;;27.90;99.90;;;;;;5135866;27;20046;-31
2023/06/17 12:36:00;;;;;;;9.75;5.65;;;27.90;99.90;;;;;;5135638;27;20503;-30
2023/06/17 12:38:31;;;;;;;12.43;6.10;;;28.30;99.90;;;;;;5134996;27;20061;-30